createdAt,value
2023-04-15T00:00:49.827Z,50.05
2023-04-15T00:01:49.873Z,49.26
2023-04-15T00:02:49.897Z,47.92
2023-04-15T00:03:49.942Z,49.24
2023-04-15T00:04:49.919Z,49.82
2023-04-15T00:05:49.755Z,47.94
2023-04-15T00:06:49.742Z,48.30
2023-04-15T00:07:49.756Z,49.17
2023-04-15T00:08:49.704Z,44.50
2023-04-15T00:09:49.703Z,44.32
2023-04-15T00:10:49.708Z,48.54
2023-04-15T00:11:50.729Z,48.67
2023-04-15T00:12:49.683Z,48.11
2023-04-15T00:13:49.666Z,50.00
2023-04-15T00:14:49.682Z,49.79
2023-04-15T00:15:49.633Z,53.80
2023-04-15T00:16:49.691Z,48.73
2023-04-15T00:17:49.702Z,49.39
2023-04-15T00:18:49.621Z,52.83
2023-04-15T00:19:49.603Z,47.08
2023-04-15T00:20:49.649Z,47.91
2023-04-15T00:21:49.584Z,46.76
2023-04-15T00:22:49.557Z,51.25
2023-04-15T00:23:49.559Z,49.45
2023-04-15T00:24:49.573Z,47.67
2023-04-15T00:25:49.562Z,56.11
2023-04-15T00:26:49.516Z,47.48
2023-04-15T00:27:49.525Z,50.45
2023-04-15T00:28:49.539Z,50.49
2023-04-15T00:29:49.508Z,47.38
2023-04-15T00:30:49.493Z,49.91
2023-04-15T00:31:49.505Z,47.01
2023-04-15T00:32:49.570Z,50.05
2023-04-15T00:33:49.464Z,54.83
2023-04-15T00:34:49.461Z,53.15
2023-04-15T00:35:49.446Z,49.51
2023-04-15T00:36:49.409Z,55.14
2023-04-15T00:37:49.451Z,49.55
2023-04-15T00:38:49.434Z,52.79
2023-04-15T00:39:49.381Z,49.71
2023-04-15T00:40:49.409Z,45.80
2023-04-15T00:41:49.383Z,50.59
2023-04-15T00:42:49.362Z,47.30
2023-04-15T00:43:49.354Z,53.07
2023-04-15T00:44:49.364Z,49.23
2023-04-15T00:45:49.390Z,49.60
2023-04-15T00:46:49.314Z,51.58
2023-04-15T00:47:49.372Z,47.11
2023-04-15T00:48:49.292Z,51.34
2023-04-15T00:49:49.294Z,47.96
2023-04-15T00:50:49.311Z,49.03
2023-04-15T00:51:49.274Z,46.77
2023-04-15T00:52:49.268Z,47.83
2023-04-15T00:53:49.254Z,53.36
2023-04-15T00:54:49.265Z,55.56
2023-04-15T00:55:49.248Z,55.62
2023-04-15T00:56:49.208Z,55.67
2023-04-15T00:57:49.215Z,56.13
2023-04-15T00:58:49.210Z,55.87
2023-04-15T00:59:49.194Z,58.46
2023-04-15T01:00:49.173Z,56.54
2023-04-15T01:01:49.285Z,52.45
2023-04-15T01:02:49.287Z,51.75
2023-04-15T01:03:49.356Z,51.22
2023-04-15T01:04:49.161Z,52.95
2023-04-15T01:05:49.139Z,51.78
2023-04-15T01:06:49.111Z,49.06
2023-04-15T01:07:49.104Z,53.04
2023-04-15T01:08:49.134Z,48.79
2023-04-15T01:09:49.100Z,47.48
2023-04-15T01:10:49.061Z,53.05
2023-04-15T01:11:49.106Z,52.29
2023-04-15T01:12:49.049Z,59.08
2023-04-15T01:13:49.052Z,54.69
2023-04-15T01:14:49.045Z,53.96
2023-04-15T01:15:49.079Z,53.77
2023-04-15T01:16:49.016Z,48.56
2023-04-15T01:17:49.032Z,48.00
2023-04-15T01:18:49.027Z,51.40
2023-04-15T01:19:48.967Z,46.11
2023-04-15T01:20:49.002Z,49.00
2023-04-15T01:21:48.966Z,49.04
2023-04-15T01:22:48.952Z,49.74
2023-04-15T01:23:48.952Z,48.95
2023-04-15T01:24:48.962Z,50.76
2023-04-15T01:25:48.912Z,52.29
2023-04-15T01:26:48.897Z,50.23
2023-04-15T01:27:48.919Z,53.41
2023-04-15T01:28:48.907Z,50.96
2023-04-15T01:29:48.898Z,53.66
2023-04-15T01:30:48.845Z,50.88
2023-04-15T01:31:48.890Z,48.76
2023-04-15T01:32:48.915Z,50.51
2023-04-15T01:33:48.839Z,49.30
2023-04-15T01:34:48.822Z,52.35
2023-04-15T01:35:48.834Z,58.74
2023-04-15T01:36:48.784Z,52.66
2023-04-15T01:37:48.795Z,50.90
2023-04-15T01:38:48.786Z,47.82
2023-04-15T01:39:48.778Z,45.41
2023-04-15T01:40:48.738Z,52.73
2023-04-15T01:41:48.742Z,48.84
2023-04-15T01:42:48.758Z,48.82
2023-04-15T01:43:48.729Z,48.12
2023-04-15T01:44:48.734Z,45.78
2023-04-15T01:45:48.705Z,46.40
2023-04-15T01:46:48.720Z,46.28
2023-04-15T01:47:48.725Z,52.50
2023-04-15T01:48:48.716Z,45.99
2023-04-15T01:49:48.667Z,46.69
2023-04-15T01:50:48.638Z,62.54
2023-04-15T01:51:48.660Z,55.50
2023-04-15T01:52:48.611Z,53.85
2023-04-15T01:53:48.613Z,52.94
2023-04-15T01:54:48.650Z,48.71
2023-04-15T01:55:48.608Z,48.56
2023-04-15T01:56:48.573Z,49.72
2023-04-15T01:57:48.589Z,48.70
2023-04-15T01:58:48.579Z,49.10
2023-04-15T01:59:48.534Z,46.51
2023-04-15T02:00:48.619Z,46.74
2023-04-15T02:01:48.594Z,49.40
2023-04-15T02:02:48.593Z,44.09
2023-04-15T02:03:48.718Z,44.68
2023-04-15T02:04:48.537Z,50.26
2023-04-15T02:05:48.502Z,50.33
2023-04-15T02:06:48.483Z,53.79
2023-04-15T02:07:48.502Z,43.96
2023-04-15T02:08:48.466Z,47.60
2023-04-15T02:09:48.463Z,49.67
2023-04-15T02:10:48.457Z,47.87
2023-04-15T02:11:48.445Z,45.70
2023-04-15T02:12:48.424Z,47.47
2023-04-15T02:13:48.420Z,51.02
2023-04-15T02:14:48.414Z,49.17
2023-04-15T02:15:48.389Z,50.18
2023-04-15T02:16:48.442Z,47.15
2023-04-15T02:17:49.431Z,51.69
2023-04-15T02:18:48.359Z,48.33
2023-04-15T02:19:48.362Z,47.37
2023-04-15T02:20:48.354Z,52.93
2023-04-15T02:21:48.344Z,51.03
2023-04-15T02:22:48.305Z,45.90
2023-04-15T02:23:48.327Z,44.33
2023-04-15T02:24:48.297Z,45.62
2023-04-15T02:25:53.848Z,47.09
2023-04-15T02:26:49.299Z,51.37
2023-04-15T02:27:48.269Z,50.30
2023-04-15T02:28:48.236Z,47.28
2023-04-15T02:29:48.257Z,51.98
2023-04-15T02:30:48.258Z,50.56
2023-04-15T02:31:48.268Z,49.00
2023-04-15T02:32:48.221Z,46.21
2023-04-15T02:33:48.195Z,52.68
2023-04-15T02:34:48.229Z,46.73
2023-04-15T02:35:48.193Z,50.94
2023-04-15T02:36:48.149Z,48.93
2023-04-15T02:37:48.159Z,46.91
2023-04-15T02:38:48.165Z,48.06
2023-04-15T02:39:48.142Z,54.19
2023-04-15T02:40:48.142Z,52.52
2023-04-15T02:41:48.133Z,45.21
2023-04-15T02:42:48.095Z,49.39
2023-04-15T02:43:48.101Z,48.33
2023-04-15T02:44:48.116Z,52.70
2023-04-15T02:45:48.109Z,50.84
2023-04-15T02:46:48.057Z,55.92
2023-04-15T02:47:48.094Z,55.87
2023-04-15T02:48:48.030Z,52.66
2023-04-15T02:49:48.053Z,52.97
2023-04-15T02:50:48.094Z,53.36
2023-04-15T02:51:48.000Z,51.17
2023-04-15T02:52:48.036Z,57.25
2023-04-15T02:53:48.002Z,49.68
2023-04-15T02:54:47.993Z,56.48
2023-04-15T02:55:47.984Z,49.89
2023-04-15T02:56:47.953Z,49.01
2023-04-15T02:57:48.955Z,52.22
2023-04-15T02:58:47.913Z,53.79
2023-04-15T02:59:47.941Z,49.69
2023-04-15T03:00:47.941Z,47.80
2023-04-15T03:01:48.036Z,51.71
2023-04-15T03:02:48.054Z,53.12
2023-04-15T03:03:47.985Z,51.82
2023-04-15T03:04:47.873Z,48.64
2023-04-15T03:05:47.869Z,49.52
2023-04-15T03:06:47.825Z,50.59
2023-04-15T03:07:47.849Z,51.68
2023-04-15T03:08:47.832Z,52.16
2023-04-15T03:09:48.810Z,47.21
2023-04-15T03:10:47.795Z,52.47
2023-04-15T03:11:47.804Z,55.61
2023-04-15T03:12:47.776Z,50.61
2023-04-15T03:13:47.784Z,49.26
2023-04-15T03:14:47.776Z,49.26
2023-04-15T03:15:47.790Z,52.03
2023-04-15T03:16:47.739Z,48.84
2023-04-15T03:17:47.807Z,47.58
2023-04-15T03:18:47.724Z,49.46
2023-04-15T03:19:47.687Z,52.90
2023-04-15T03:20:47.697Z,50.82
2023-04-15T03:21:47.679Z,51.88
2023-04-15T03:22:47.672Z,48.09
2023-04-15T03:23:47.656Z,50.04
2023-04-15T03:24:47.663Z,49.14
2023-04-15T03:25:47.647Z,51.18
2023-04-15T03:26:47.624Z,54.36
2023-04-15T03:27:47.627Z,51.89
2023-04-15T03:28:47.607Z,47.41
2023-04-15T03:29:47.602Z,48.81
2023-04-15T03:30:47.614Z,52.37
2023-04-15T03:31:47.597Z,50.83
2023-04-15T03:32:47.641Z,53.85
2023-04-15T03:33:47.571Z,51.30
2023-04-15T03:34:47.562Z,52.81
2023-04-15T03:35:47.530Z,54.63
2023-04-15T03:36:47.539Z,55.75
2023-04-15T03:37:47.533Z,53.60
2023-04-15T03:38:47.517Z,53.86
2023-04-15T03:39:47.502Z,52.59
2023-04-15T03:40:47.484Z,53.46
2023-04-15T03:41:47.468Z,53.95
2023-04-15T03:42:47.492Z,55.38
2023-04-15T03:43:47.442Z,56.88
2023-04-15T03:44:47.469Z,52.99
2023-04-15T03:45:47.441Z,55.92
2023-04-15T03:46:47.456Z,54.31
2023-04-15T03:47:47.424Z,56.03
2023-04-15T03:48:47.414Z,56.17
2023-04-15T03:49:47.415Z,54.69
2023-04-15T03:50:47.361Z,53.72
2023-04-15T03:51:47.381Z,54.16
2023-04-15T03:52:48.265Z,53.27
2023-04-15T03:53:47.344Z,55.52
2023-04-15T03:54:47.369Z,58.85
2023-04-15T03:55:47.338Z,55.63
2023-04-15T03:56:47.308Z,52.87
2023-04-15T03:57:47.310Z,53.59
2023-04-15T03:58:47.330Z,51.54
2023-04-15T03:59:47.284Z,52.31
2023-04-15T04:00:47.293Z,53.22
2023-04-15T04:01:47.338Z,54.57
2023-04-15T04:02:47.380Z,55.24
2023-04-15T04:03:47.387Z,51.70
2023-04-15T04:04:47.377Z,54.54
2023-04-15T04:05:47.229Z,56.61
2023-04-15T04:06:47.198Z,54.49
2023-04-15T04:07:47.221Z,52.69
2023-04-15T04:08:47.205Z,53.83
2023-04-15T04:09:47.417Z,53.75
2023-04-15T04:10:48.168Z,52.41
2023-04-15T04:11:47.162Z,50.43
2023-04-15T04:12:47.157Z,55.58
2023-04-15T04:13:47.144Z,54.19
2023-04-15T04:14:47.110Z,56.66
2023-04-15T04:15:47.157Z,50.66
2023-04-15T04:16:47.144Z,54.77
2023-04-15T04:17:47.178Z,59.02
2023-04-15T04:18:47.088Z,60.00
2023-04-15T04:19:47.090Z,55.47
2023-04-15T04:20:47.044Z,56.99
2023-04-15T04:21:47.046Z,55.78
2023-04-15T04:22:47.066Z,56.20
2023-04-15T04:23:47.020Z,57.16
2023-04-15T04:24:47.035Z,55.39
2023-04-15T04:25:47.031Z,53.60
2023-04-15T04:26:46.985Z,55.90
2023-04-15T04:27:46.985Z,52.55
2023-04-15T04:28:47.016Z,57.97
2023-04-15T04:29:46.964Z,58.08
2023-04-15T04:30:46.936Z,56.15
2023-04-15T04:31:47.028Z,58.95
2023-04-15T04:32:46.936Z,54.87
2023-04-15T04:33:46.929Z,57.80
2023-04-15T04:34:46.927Z,61.00
2023-04-15T04:35:46.906Z,57.53
2023-04-15T04:36:46.869Z,56.47
2023-04-15T04:37:46.902Z,58.44
2023-04-15T04:38:46.889Z,56.14
2023-04-15T04:39:46.904Z,54.03
2023-04-15T04:40:46.827Z,56.64
2023-04-15T04:41:46.825Z,58.06
2023-04-15T04:42:46.841Z,56.32
2023-04-15T04:43:46.838Z,55.68
2023-04-15T04:44:46.782Z,56.96
2023-04-15T04:45:46.797Z,55.21
2023-04-15T04:46:46.796Z,54.61
2023-04-15T04:47:46.825Z,57.42
2023-04-15T04:48:47.235Z,52.88
2023-04-15T04:49:47.762Z,56.90
2023-04-15T04:50:46.712Z,57.94
2023-04-15T04:51:46.741Z,57.72
2023-04-15T04:52:46.742Z,53.82
2023-04-15T04:53:46.712Z,55.88
2023-04-15T04:54:46.674Z,58.39
2023-04-15T04:55:46.702Z,59.44
2023-04-15T04:56:46.659Z,55.51
2023-04-15T04:57:46.650Z,56.29
2023-04-15T04:58:46.671Z,57.67
2023-04-15T04:59:46.637Z,51.36
2023-04-15T05:00:46.617Z,53.67
2023-04-15T05:01:46.726Z,59.67
2023-04-15T05:02:46.693Z,58.47
2023-04-15T05:03:46.693Z,59.24
2023-04-15T05:04:46.608Z,56.03
2023-04-15T05:05:46.615Z,57.54
2023-04-15T05:06:46.588Z,55.81
2023-04-15T05:07:46.574Z,56.54
2023-04-15T05:08:46.557Z,55.91
2023-04-15T05:09:46.546Z,58.71
2023-04-15T05:10:46.517Z,54.06
2023-04-15T05:11:46.502Z,51.62
2023-04-15T05:12:46.527Z,54.03
2023-04-15T05:13:46.510Z,53.38
2023-04-15T05:14:46.476Z,54.81
2023-04-15T05:15:46.482Z,55.65
2023-04-15T05:16:46.481Z,56.99
2023-04-15T05:17:46.478Z,57.34
2023-04-15T05:18:46.422Z,56.64
2023-04-15T05:19:46.475Z,51.08
2023-04-15T05:20:46.416Z,52.15
2023-04-15T05:21:46.407Z,52.68
2023-04-15T05:22:46.442Z,55.90
2023-04-15T05:23:46.392Z,53.82
2023-04-15T05:24:46.362Z,55.06
2023-04-15T05:25:46.382Z,55.92
2023-04-15T05:26:46.394Z,56.06
2023-04-15T05:27:46.331Z,57.52
2023-04-15T05:28:46.349Z,57.66
2023-04-15T05:29:46.339Z,55.76
2023-04-15T05:30:46.334Z,60.42
2023-04-15T05:31:46.300Z,58.04
2023-04-15T05:32:46.323Z,55.71
2023-04-15T05:33:46.301Z,57.63
2023-04-15T05:34:46.263Z,57.05
2023-04-15T05:35:46.283Z,54.38
2023-04-15T05:36:46.248Z,55.31
2023-04-15T05:37:46.249Z,56.96
2023-04-15T05:38:46.245Z,59.08
2023-04-15T05:39:46.233Z,55.56
2023-04-15T05:40:46.185Z,56.37
2023-04-15T05:41:46.208Z,57.98
2023-04-15T05:42:46.248Z,55.09
2023-04-15T05:43:46.195Z,56.98
2023-04-15T05:44:46.160Z,60.76
2023-04-15T05:45:46.272Z,56.72
2023-04-15T05:46:46.170Z,58.51
2023-04-15T05:47:46.170Z,57.91
2023-04-15T05:48:46.126Z,56.64
2023-04-15T05:49:46.119Z,56.85
2023-04-15T05:50:46.123Z,55.12
2023-04-15T05:51:46.101Z,57.94
2023-04-15T05:52:46.094Z,55.44
2023-04-15T05:53:46.103Z,52.16
2023-04-15T05:54:46.068Z,54.93
2023-04-15T05:55:46.056Z,56.53
2023-04-15T05:56:46.064Z,58.12
2023-04-15T05:57:46.051Z,58.72
2023-04-15T05:58:46.028Z,56.63
2023-04-15T05:59:46.029Z,59.18
2023-04-15T06:00:46.008Z,56.12
2023-04-15T06:01:46.006Z,59.60
2023-04-15T06:02:46.148Z,55.05
2023-04-15T06:03:46.113Z,55.64
2023-04-15T06:04:45.983Z,56.99
2023-04-15T06:05:45.970Z,58.96
2023-04-15T06:06:45.965Z,56.26
2023-04-15T06:07:48.025Z,51.92
2023-04-15T06:08:46.938Z,58.99
2023-04-15T06:09:45.945Z,57.89
2023-04-15T06:10:45.902Z,56.48
2023-04-15T06:11:45.897Z,56.08
2023-04-15T06:12:45.918Z,56.86
2023-04-15T06:13:45.874Z,57.63
2023-04-15T06:14:45.843Z,61.20
2023-04-15T06:15:45.855Z,57.35
2023-04-15T06:16:45.843Z,58.24
2023-04-15T06:17:45.862Z,57.83
2023-04-15T06:18:45.843Z,58.82
2023-04-15T06:19:45.815Z,55.85
2023-04-15T06:20:45.795Z,55.74
2023-04-15T06:21:45.796Z,60.38
2023-04-15T06:22:45.795Z,58.02
2023-04-15T06:23:45.748Z,57.02
2023-04-15T06:24:45.778Z,58.69
2023-04-15T06:25:45.777Z,57.11
2023-04-15T06:26:45.721Z,59.03
2023-04-15T06:27:45.730Z,59.28
2023-04-15T06:28:45.734Z,56.76
2023-04-15T06:29:45.709Z,59.03
2023-04-15T06:30:45.700Z,61.27
2023-04-15T06:31:45.771Z,57.11
2023-04-15T06:32:45.727Z,60.49
2023-04-15T06:33:45.680Z,59.24
2023-04-15T06:34:45.683Z,58.39
2023-04-15T06:35:45.641Z,58.97
2023-04-15T06:36:45.628Z,57.94
2023-04-15T06:37:45.621Z,58.37
2023-04-15T06:38:45.637Z,58.17
2023-04-15T06:39:45.587Z,59.10
2023-04-15T06:40:45.603Z,60.27
2023-04-15T06:41:45.587Z,59.14
2023-04-15T06:42:45.587Z,60.47
2023-04-15T06:43:45.554Z,59.02
2023-04-15T06:44:45.564Z,59.22
2023-04-15T06:45:45.590Z,57.42
2023-04-15T06:46:45.512Z,55.55
2023-04-15T06:47:45.599Z,58.53
2023-04-15T06:48:45.534Z,60.96
2023-04-15T06:49:45.517Z,57.30
2023-04-15T06:50:45.537Z,60.56
2023-04-15T06:51:45.477Z,59.23
2023-04-15T06:52:45.476Z,58.88
2023-04-15T06:53:45.466Z,59.35
2023-04-15T06:54:45.467Z,61.21
2023-04-15T06:55:45.469Z,61.80
2023-04-15T06:56:45.421Z,57.75
2023-04-15T06:57:45.443Z,57.71
2023-04-15T06:58:45.424Z,57.46
2023-04-15T06:59:45.429Z,57.06
2023-04-15T07:00:45.392Z,56.54
2023-04-15T07:01:45.472Z,57.94
2023-04-15T07:02:45.486Z,58.24
2023-04-15T07:03:45.366Z,60.03
2023-04-15T07:04:45.376Z,61.09
2023-04-15T07:05:45.350Z,60.89
2023-04-15T07:06:45.323Z,61.17
2023-04-15T07:07:45.316Z,59.00
2023-04-15T07:08:45.320Z,57.67
2023-04-15T07:09:45.332Z,56.34
2023-04-15T07:10:45.255Z,55.77
2023-04-15T07:11:45.281Z,60.62
2023-04-15T07:12:46.272Z,59.54
2023-04-15T07:13:45.243Z,57.85
2023-04-15T07:14:45.264Z,60.33
2023-04-15T07:15:45.240Z,59.76
2023-04-15T07:16:45.236Z,58.35
2023-04-15T07:17:45.264Z,59.11
2023-04-15T07:18:45.222Z,56.47
2023-04-15T07:19:45.184Z,59.93
2023-04-15T07:20:45.157Z,59.88
2023-04-15T07:21:45.184Z,59.97
2023-04-15T07:22:45.174Z,61.93
2023-04-15T07:23:45.143Z,61.87
2023-04-15T07:24:45.145Z,56.09
2023-04-15T07:25:45.121Z,59.90
2023-04-15T07:26:45.167Z,60.92
2023-04-15T07:27:45.092Z,61.40
2023-04-15T07:28:45.109Z,60.22
2023-04-15T07:29:45.119Z,61.02
2023-04-15T07:30:45.089Z,61.84
2023-04-15T07:31:45.067Z,61.60
2023-04-15T07:32:45.095Z,63.09
2023-04-15T07:33:45.035Z,60.63
2023-04-15T07:34:45.020Z,60.85
2023-04-15T07:35:45.037Z,60.71
2023-04-15T07:36:45.012Z,61.50
2023-04-15T07:37:44.990Z,62.03
2023-04-15T07:38:45.001Z,63.27
2023-04-15T07:39:44.991Z,63.27
2023-04-15T07:40:44.950Z,59.95
2023-04-15T07:41:44.959Z,63.48
2023-04-15T07:42:44.978Z,63.00
2023-04-15T07:43:44.931Z,61.85
2023-04-15T07:44:44.962Z,61.58
2023-04-15T07:45:44.925Z,62.56
2023-04-15T07:46:44.898Z,61.11
2023-04-15T07:47:44.945Z,60.95
2023-04-15T07:48:44.900Z,60.52
2023-04-15T07:49:44.883Z,60.71
2023-04-15T07:50:44.844Z,63.82
2023-04-15T07:51:44.867Z,61.83
2023-04-15T07:52:44.869Z,61.58
2023-04-15T07:53:44.846Z,61.54
2023-04-15T07:54:44.803Z,61.81
2023-04-15T07:55:44.823Z,62.69
2023-04-15T07:56:44.813Z,60.57
2023-04-15T07:57:44.815Z,61.08
2023-04-15T07:58:44.790Z,61.83
2023-04-15T07:59:44.789Z,62.92
2023-04-15T08:00:44.761Z,62.88
2023-04-15T08:01:44.760Z,61.78
2023-04-15T08:02:44.818Z,63.63
2023-04-15T08:03:44.834Z,63.21
2023-04-15T08:04:44.819Z,60.85
2023-04-15T08:05:44.708Z,61.69
2023-04-15T08:06:44.718Z,61.12
2023-04-15T08:07:44.689Z,62.24
2023-04-15T08:08:44.709Z,62.51
2023-04-15T08:09:44.668Z,64.63
2023-04-15T08:10:44.653Z,63.65
2023-04-15T08:11:44.644Z,64.21
2023-04-15T08:12:44.655Z,63.98
2023-04-15T08:13:44.624Z,63.37
2023-04-15T08:14:44.601Z,63.18
2023-04-15T08:15:44.679Z,63.30
2023-04-15T08:16:44.596Z,63.48
2023-04-15T08:17:44.641Z,62.36
2023-04-15T08:18:44.576Z,63.14
2023-04-15T08:19:44.563Z,63.91
2023-04-15T08:20:44.539Z,63.11
2023-04-15T08:21:44.524Z,63.07
2023-04-15T08:22:44.537Z,63.62
2023-04-15T08:23:45.527Z,64.11
2023-04-15T08:24:44.482Z,61.74
2023-04-15T08:25:44.514Z,64.42
2023-04-15T08:26:44.500Z,62.64
2023-04-15T08:27:44.480Z,63.20
2023-04-15T08:28:44.457Z,63.15
2023-04-15T08:29:44.450Z,64.22
2023-04-15T08:30:44.450Z,63.96
2023-04-15T08:31:44.458Z,63.72
2023-04-15T08:32:44.429Z,66.26
2023-04-15T08:33:44.411Z,63.32
2023-04-15T08:34:44.398Z,64.01
2023-04-15T08:35:44.397Z,63.64
2023-04-15T08:36:44.396Z,63.69
2023-04-15T08:37:44.386Z,65.18
2023-04-15T08:38:44.363Z,61.84
2023-04-15T08:39:44.353Z,61.47
2023-04-15T08:40:44.344Z,62.49
2023-04-15T08:41:44.333Z,64.13
2023-04-15T08:42:44.934Z,61.79
2023-04-15T08:43:44.347Z,63.17
2023-04-15T08:44:44.276Z,63.94
2023-04-15T08:45:44.282Z,63.43
2023-04-15T08:46:44.303Z,64.50
2023-04-15T08:47:44.301Z,62.67
2023-04-15T08:48:44.291Z,63.63
2023-04-15T08:49:44.283Z,63.01
2023-04-15T08:50:44.227Z,63.96
2023-04-15T08:51:44.214Z,66.41
2023-04-15T08:52:44.228Z,63.19
2023-04-15T08:53:44.210Z,64.06
2023-04-15T08:54:44.210Z,66.82
2023-04-15T08:55:44.196Z,65.18
2023-04-15T08:56:44.220Z,62.71
2023-04-15T08:57:44.167Z,64.18
2023-04-15T08:58:44.153Z,61.67
2023-04-15T08:59:44.157Z,64.03
2023-04-15T09:00:44.177Z,64.42
2023-04-15T09:01:44.136Z,64.82
2023-04-15T09:02:44.204Z,65.18
2023-04-15T09:03:44.322Z,63.57
2023-04-15T09:04:44.095Z,67.24
2023-04-15T09:05:44.092Z,65.23
2023-04-15T09:06:44.084Z,65.92
2023-04-15T09:07:44.131Z,64.36
2023-04-15T09:08:44.040Z,63.77
2023-04-15T09:09:44.061Z,63.34
2023-04-15T09:10:44.051Z,64.29
2023-04-15T09:11:43.999Z,64.49
2023-04-15T09:12:44.019Z,65.26
2023-04-15T09:13:44.015Z,62.80
2023-04-15T09:14:43.963Z,66.16
2023-04-15T09:15:43.958Z,65.88
2023-04-15T09:16:44.032Z,64.35
2023-04-15T09:17:44.029Z,65.29
2023-04-15T09:18:43.929Z,66.33
2023-04-15T09:19:43.967Z,64.54
2023-04-15T09:20:43.901Z,66.41
2023-04-15T09:21:43.930Z,65.47
2023-04-15T09:22:43.950Z,63.47
2023-04-15T09:23:43.896Z,63.98
2023-04-15T09:24:43.855Z,66.64
2023-04-15T09:25:43.871Z,65.10
2023-04-15T09:26:43.869Z,62.21
2023-04-15T09:27:43.848Z,63.45
2023-04-15T09:28:43.819Z,64.80
2023-04-15T09:29:43.861Z,62.47
2023-04-15T09:30:43.859Z,63.42
2023-04-15T09:31:43.816Z,64.98
2023-04-15T09:32:43.781Z,64.50
2023-04-15T09:33:43.782Z,63.01
2023-04-15T09:34:43.801Z,64.86
2023-04-15T09:35:43.752Z,63.19
2023-04-15T09:36:43.774Z,65.96
2023-04-15T09:37:43.742Z,64.22
2023-04-15T09:38:43.749Z,62.90
2023-04-15T09:39:43.722Z,62.84
2023-04-15T09:40:43.720Z,63.55
2023-04-15T09:41:43.742Z,64.93
2023-04-15T09:42:43.669Z,64.13
2023-04-15T09:43:43.694Z,62.04
2023-04-15T09:44:43.691Z,60.93
2023-04-15T09:45:43.706Z,62.20
2023-04-15T09:46:43.693Z,63.68
2023-04-15T09:47:43.675Z,62.98
2023-04-15T09:48:43.616Z,62.66
2023-04-15T09:49:43.652Z,63.88
2023-04-15T09:51:16.021Z,63.68
2023-04-15T09:51:51.319Z,64.15
2023-04-15T09:52:45.591Z,65.39
2023-04-15T09:53:43.585Z,62.25
2023-04-15T09:54:43.571Z,62.28
2023-04-15T09:55:43.570Z,63.39
2023-04-15T09:56:43.561Z,65.28
2023-04-15T09:57:43.527Z,65.26
2023-04-15T09:58:43.655Z,64.06
2023-04-15T09:59:43.538Z,62.69
2023-04-15T10:00:43.498Z,64.53
2023-04-15T10:01:43.539Z,64.58
2023-04-15T10:02:43.641Z,62.83
2023-04-15T10:03:43.566Z,64.10
2023-04-15T10:04:43.469Z,63.71
2023-04-15T10:05:43.453Z,60.60
2023-04-15T10:06:43.449Z,61.40
2023-04-15T10:07:43.444Z,62.29
2023-04-15T10:08:43.418Z,62.87
2023-04-15T10:09:43.450Z,64.91
2023-04-15T10:10:43.387Z,63.61
2023-04-15T10:11:43.389Z,61.54
2023-04-15T10:12:43.417Z,60.94
2023-04-15T10:13:43.380Z,63.08
2023-04-15T10:14:43.379Z,62.81
2023-04-15T10:15:43.400Z,62.77
2023-04-15T10:16:43.372Z,65.04
2023-04-15T10:17:43.384Z,63.14
2023-04-15T10:18:43.313Z,61.98
2023-04-15T10:19:43.341Z,62.41
2023-04-15T10:20:43.292Z,64.87
2023-04-15T10:21:43.277Z,62.43
2023-04-15T10:22:44.316Z,61.77
2023-04-15T10:23:43.267Z,63.27
2023-04-15T10:24:43.267Z,61.88
2023-04-15T10:25:43.251Z,63.17
2023-04-15T10:26:43.248Z,63.12
2023-04-15T10:27:43.246Z,63.48
2023-04-15T10:28:43.218Z,64.31
2023-04-15T10:29:43.296Z,62.15
2023-04-15T10:30:43.215Z,64.68
2023-04-15T10:31:43.309Z,63.41
2023-04-15T10:32:43.291Z,62.24
2023-04-15T10:33:43.172Z,64.63
2023-04-15T10:34:43.181Z,63.24
2023-04-15T10:35:43.162Z,63.04
2023-04-15T10:36:43.185Z,61.17
2023-04-15T10:37:43.126Z,62.25
2023-04-15T10:38:43.135Z,63.10
2023-04-15T10:39:43.161Z,64.05
2023-04-15T10:40:43.103Z,63.23
2023-04-15T10:41:43.093Z,64.37
2023-04-15T10:42:43.103Z,63.80
2023-04-15T10:43:43.074Z,60.78
2023-04-15T10:44:43.081Z,63.08
2023-04-15T10:45:43.086Z,62.86
2023-04-15T10:46:43.052Z,61.20
2023-04-15T10:47:43.089Z,62.09
2023-04-15T10:48:43.020Z,60.45
2023-04-15T10:49:43.506Z,61.49
2023-04-15T10:50:42.997Z,60.19
2023-04-15T10:51:42.997Z,61.81
2023-04-15T10:52:42.970Z,64.10
2023-04-15T10:53:42.953Z,62.57
2023-04-15T10:54:42.990Z,61.93
2023-04-15T10:55:42.959Z,62.48
2023-04-15T10:56:42.983Z,63.06
2023-04-15T10:57:42.941Z,63.81
2023-04-15T10:58:42.932Z,60.08
2023-04-15T10:59:42.914Z,61.35
2023-04-15T11:00:42.917Z,60.67
2023-04-15T11:01:42.948Z,63.47
2023-04-15T11:02:42.984Z,62.41
2023-04-15T11:03:43.098Z,63.60
2023-04-15T11:04:43.209Z,63.70
2023-04-15T11:05:43.850Z,63.26
2023-04-15T11:06:42.819Z,63.89
2023-04-15T11:07:42.844Z,63.46
2023-04-15T11:08:42.816Z,61.03
2023-04-15T11:09:42.907Z,62.54
2023-04-15T11:10:42.796Z,61.13
2023-04-15T11:11:44.008Z,62.08
2023-04-15T11:12:42.771Z,60.35
2023-04-15T11:13:42.790Z,63.84
2023-04-15T11:14:42.752Z,64.22
2023-04-15T11:15:42.762Z,65.47
2023-04-15T11:16:42.802Z,65.02
2023-04-15T11:17:43.639Z,62.61
2023-04-15T11:18:42.800Z,63.02
2023-04-15T11:19:42.684Z,61.89
2023-04-15T11:20:42.755Z,63.10
2023-04-15T11:21:42.663Z,63.36
2023-04-15T11:22:42.661Z,61.87
2023-04-15T11:23:42.683Z,60.99
2023-04-15T11:24:42.656Z,62.56
2023-04-15T11:25:42.641Z,62.59
2023-04-15T11:26:42.631Z,62.66
2023-04-15T11:27:42.610Z,61.20
2023-04-15T11:28:42.607Z,65.83
2023-04-15T11:29:42.583Z,63.88
2023-04-15T11:30:42.616Z,62.62
2023-04-15T11:31:42.591Z,62.22
2023-04-15T11:32:42.604Z,61.95
2023-04-15T11:33:43.574Z,63.22
2023-04-15T11:34:42.536Z,60.91
2023-04-15T11:35:42.524Z,60.61
2023-04-15T11:36:42.531Z,60.91
2023-04-15T11:37:42.510Z,60.30
2023-04-15T11:38:42.516Z,64.42
2023-04-15T11:39:42.483Z,61.57
2023-04-15T11:40:44.488Z,61.74
2023-04-15T11:41:42.456Z,60.36
2023-04-15T11:42:49.443Z,59.95
2023-04-15T11:43:44.477Z,62.66
2023-04-15T11:44:43.436Z,59.70
2023-04-15T11:45:42.479Z,61.41
2023-04-15T11:46:44.412Z,60.86
2023-04-15T11:47:42.455Z,62.24
2023-04-15T11:48:42.409Z,61.55
2023-04-15T11:49:42.387Z,60.95
2023-04-15T11:50:42.388Z,61.27
2023-04-15T11:51:42.382Z,63.23
2023-04-15T11:52:42.339Z,63.52
2023-04-15T11:53:42.359Z,62.31
2023-04-15T11:54:42.348Z,61.39
2023-04-15T11:55:42.321Z,60.40
2023-04-15T11:56:42.346Z,60.10
2023-04-15T11:57:42.303Z,61.35
2023-04-15T11:58:42.299Z,62.83
2023-04-15T11:59:45.300Z,63.60
2023-04-15T12:00:43.271Z,59.81
2023-04-15T12:01:42.263Z,61.15
2023-04-15T12:02:43.290Z,61.74
2023-04-15T12:03:42.371Z,60.03
2023-04-15T12:04:42.486Z,61.60
2023-04-15T12:05:42.213Z,61.39
2023-04-15T12:06:42.205Z,61.67
2023-04-15T12:07:42.188Z,63.36
2023-04-15T12:08:42.204Z,62.11
2023-04-15T12:09:42.181Z,62.54
2023-04-15T12:10:42.156Z,63.23
2023-04-15T12:11:42.164Z,62.22
2023-04-15T12:12:42.166Z,60.79
2023-04-15T12:13:42.120Z,61.08
2023-04-15T12:14:43.147Z,62.79
2023-04-15T12:15:42.149Z,59.09
2023-04-15T12:16:48.779Z,60.06
2023-04-15T12:17:51.434Z,61.66
2023-04-15T12:18:43.088Z,61.63
2023-04-15T12:19:42.096Z,60.36
2023-04-15T12:20:42.070Z,62.45
2023-04-15T12:21:42.041Z,62.73
2023-04-15T12:22:42.051Z,62.28
2023-04-15T12:23:42.026Z,62.81
2023-04-15T12:24:42.028Z,58.91
2023-04-15T12:25:42.038Z,59.98
2023-04-15T12:26:41.998Z,61.43
2023-04-15T12:27:41.992Z,62.43
2023-04-15T12:28:41.995Z,60.44
2023-04-15T12:29:42.031Z,61.80
2023-04-15T12:30:41.961Z,62.11
2023-04-15T12:31:41.989Z,62.26
2023-04-15T12:32:43.435Z,60.56
2023-04-15T12:33:42.934Z,60.70
2023-04-15T12:34:41.972Z,62.24
2023-04-15T12:35:41.911Z,61.98
2023-04-15T12:36:41.915Z,60.09
2023-04-15T12:37:41.911Z,60.91
2023-04-15T12:38:41.891Z,61.66
2023-04-15T12:39:41.884Z,61.05
2023-04-15T12:40:41.855Z,63.10
2023-04-15T12:41:41.867Z,62.41
2023-04-15T12:42:41.857Z,64.01
2023-04-15T12:43:41.833Z,62.94
2023-04-15T12:44:41.834Z,62.15
2023-04-15T12:45:41.813Z,59.82
2023-04-15T12:46:41.816Z,61.22
2023-04-15T12:47:41.834Z,62.38
2023-04-15T12:48:41.779Z,61.60
2023-04-15T12:49:41.802Z,61.33
2023-04-15T12:50:41.760Z,61.65
2023-04-15T12:51:41.750Z,61.19
2023-04-15T12:52:41.745Z,59.42